Time;durP1;ratioP1;P1;durP2;ratioP2;P2;SDS_P1;SDS_P2;PMS_P1;PMS_P2;Temp;Humidity;BMP_temperature;BMP_pressure;BME280_temperature;BME280_humidity;BME280_pressure;Samples;Min_cycle;Max_cycle;Signal;HPM_P1;HPM_P2
2022/01/29 00:00:24;;;;;;;14.02;8.73;;;7.50;96.70;;;;;;4982528;28;20056;-76
2022/01/29 00:02:52;;;;;;;12.98;8.30;;;7.50;96.70;;;;;;4995703;28;20087;-76
2022/01/29 00:05:20;;;;;;;12.80;8.40;;;7.50;96.70;;;;;;5000538;28;20099;-75
2022/01/29 00:07:48;;;;;;;14.35;9.70;;;7.60;96.70;;;;;;5013769;28;20093;-76
2022/01/29 00:10:17;;;;;;;16.10;9.70;;;7.60;96.70;;;;;;5036379;28;20065;-76
2022/01/29 00:12:47;;;;;;;13.00;10.05;;;7.40;96.70;;;;;;4999752;28;20075;-76
2022/01/29 00:15:15;;;;;;;16.77;10.10;;;7.30;96.70;;;;;;5016023;28;20052;-76
2022/01/29 00:17:44;;;;;;;15.88;10.77;;;7.20;96.70;;;;;;5009758;28;20034;-76
2022/01/29 00:20:12;;;;;;;15.93;11.15;;;7.10;96.70;;;;;;4997704;28;20033;-76
2022/01/29 00:22:41;;;;;;;17.50;11.30;;;7.10;96.70;;;;;;4999835;28;20528;-76
2022/01/29 00:25:09;;;;;;;18.83;12.15;;;7.10;96.70;;;;;;5002438;28;20042;-76
2022/01/29 00:27:39;;;;;;;16.65;11.73;;;7.20;96.70;;;;;;5024221;28;20042;-76
2022/01/29 00:30:14;;;;;;;14.45;10.68;;;7.20;96.70;;;;;;5010414;28;20045;-76
2022/01/29 00:32:42;;;;;;;13.70;10.25;;;7.10;96.70;;;;;;5015990;28;20124;-76
2022/01/29 00:35:11;;;;;;;15.63;10.60;;;7.20;96.70;;;;;;4993940;28;20132;-76
2022/01/29 00:37:39;;;;;;;16.92;10.55;;;7.20;96.70;;;;;;5024400;28;20042;-75
2022/01/29 00:40:08;;;;;;;14.98;9.93;;;7.10;96.70;;;;;;5026386;28;20440;-76
2022/01/29 00:42:36;;;;;;;14.90;10.38;;;7.10;96.70;;;;;;5037798;28;20686;-76
2022/01/29 00:45:06;;;;;;;17.85;10.52;;;7.10;96.70;;;;;;5023638;28;20041;-76
2022/01/29 00:47:36;;;;;;;15.95;10.02;;;7.00;96.70;;;;;;5040336;28;20602;-76
2022/01/29 00:50:04;;;;;;;13.43;9.32;;;7.10;96.70;;;;;;5025658;28;20502;-76
2022/01/29 00:52:33;;;;;;;11.90;8.73;;;7.20;96.70;;;;;;5047791;28;20135;-76
2022/01/29 00:55:01;;;;;;;11.27;7.75;;;7.20;96.70;;;;;;5031843;28;20405;-76
2022/01/29 00:57:31;;;;;;;12.02;8.07;;;7.10;96.70;;;;;;5040320;28;20420;-75
2022/01/29 00:59:59;;;;;;;10.90;7.78;;;7.10;96.70;;;;;;5051024;28;20102;-76
2022/01/29 01:02:27;;;;;;;11.25;7.47;;;7.00;96.70;;;;;;5025678;28;20040;-76
2022/01/29 01:04:57;;;;;;;8.93;6.47;;;6.90;96.70;;;;;;5045075;28;20048;-75
2022/01/29 01:07:26;;;;;;;10.18;6.70;;;6.80;96.70;;;;;;5030086;28;20070;-76
2022/01/29 01:09:54;;;;;;;9.20;6.75;;;6.80;96.70;;;;;;5026758;28;20119;-76
2022/01/29 01:12:22;;;;;;;8.93;6.25;;;7.00;96.70;;;;;;5024369;28;20390;-76
2022/01/29 01:14:51;;;;;;;8.30;6.72;;;6.80;96.70;;;;;;5024351;28;20320;-76
2022/01/29 01:17:19;;;;;;;10.57;6.03;;;6.50;96.70;;;;;;5040724;28;20037;-75
2022/01/29 01:19:47;;;;;;;9.65;6.78;;;6.60;96.70;;;;;;5031553;28;20469;-77
2022/01/29 01:22:17;;;;;;;9.02;6.47;;;6.70;96.70;;;;;;5034073;28;20167;-76
2022/01/29 01:24:47;;;;;;;8.00;6.43;;;6.70;96.70;;;;;;5015174;28;20052;-76
2022/01/29 01:27:15;;;;;;;12.45;7.55;;;6.90;96.70;;;;;;5023925;28;20256;-76
2022/01/29 01:29:44;;;;;;;11.65;7.97;;;6.90;96.70;;;;;;5008641;28;20391;-76
2022/01/29 01:32:12;;;;;;;13.02;8.77;;;6.90;96.70;;;;;;5029738;28;20064;-76
2022/01/29 01:34:46;;;;;;;12.02;8.70;;;6.90;96.70;;;;;;5028559;28;20044;-76
2022/01/29 01:37:36;;;;;;;18.00;9.98;;;7.00;96.70;;;;;;5022762;28;20064;-76
2022/01/29 01:40:07;;;;;;;15.23;9.70;;;6.90;96.70;;;;;;5021784;28;20048;-76
2022/01/29 01:42:35;;;;;;;17.15;10.40;;;7.00;96.70;;;;;;5023285;28;20437;-76
2022/01/29 01:45:05;;;;;;;20.08;10.75;;;7.00;96.70;;;;;;5011033;28;20072;-76
2022/01/29 01:47:33;;;;;;;20.48;10.90;;;6.80;96.70;;;;;;5027903;28;20045;-76
2022/01/29 01:50:02;;;;;;;19.13;10.70;;;6.80;96.70;;;;;;5021974;28;20627;-76
2022/01/29 01:52:31;;;;;;;36.53;12.60;;;6.70;96.70;;;;;;5030870;28;20083;-76
2022/01/29 01:55:00;;;;;;;28.90;11.43;;;6.80;96.70;;;;;;5025823;28;20381;-76
2022/01/29 01:57:28;;;;;;;20.92;9.43;;;6.80;96.70;;;;;;5029059;28;20037;-76
2022/01/29 01:59:56;;;;;;;21.40;9.98;;;6.80;96.70;;;;;;5026927;28;20057;-76
2022/01/29 02:02:24;;;;;;;27.70;10.40;;;6.80;96.70;;;;;;5018631;28;20049;-76
2022/01/29 02:04:53;;;;;;;25.17;10.18;;;6.70;96.70;;;;;;5028383;28;20276;-76
2022/01/29 02:07:21;;;;;;;20.75;10.02;;;6.50;96.70;;;;;;5031489;28;20336;-76
2022/01/29 02:09:51;;;;;;;16.52;9.80;;;6.40;96.70;;;;;;5019974;28;20365;-76
2022/01/29 02:12:19;;;;;;;14.55;9.85;;;6.30;96.70;;;;;;5021944;28;20530;-76
2022/01/29 02:14:48;;;;;;;12.23;8.82;;;6.30;96.70;;;;;;5018702;28;20092;-77
2022/01/29 02:17:16;;;;;;;16.45;9.48;;;6.20;96.70;;;;;;5025629;28;20077;-77
2022/01/29 02:19:44;;;;;;;12.52;8.43;;;6.10;96.70;;;;;;5029535;28;20049;-77
2022/01/29 02:22:14;;;;;;;13.18;8.27;;;6.20;96.70;;;;;;5024711;28;20048;-77
2022/01/29 02:24:42;;;;;;;11.68;7.90;;;6.10;96.70;;;;;;5022757;28;20041;-77
2022/01/29 02:27:10;;;;;;;12.63;8.27;;;6.10;96.70;;;;;;5029081;28;20453;-77
2022/01/29 02:29:39;;;;;;;11.30;7.38;;;6.00;96.70;;;;;;5029758;28;20131;-77
2022/01/29 02:32:07;;;;;;;10.82;8.68;;;6.00;96.70;;;;;;5028431;28;20139;-77
2022/01/29 02:34:36;;;;;;;11.38;8.52;;;6.10;96.70;;;;;;5024073;28;20045;-77
2022/01/29 02:37:04;;;;;;;11.88;8.02;;;6.10;96.70;;;;;;5027684;28;20049;-77
2022/01/29 02:39:34;;;;;;;10.80;8.35;;;6.10;96.70;;;;;;5023566;28;20038;-77
2022/01/29 02:42:03;;;;;;;12.98;7.68;;;6.10;96.70;;;;;;5023967;28;20057;-76
2022/01/29 02:44:31;;;;;;;11.20;7.95;;;6.10;96.70;;;;;;5025653;28;20041;-77
2022/01/29 02:47:15;;;;;;;12.35;7.93;;;6.20;96.70;;;;;;5027606;28;20057;-77
2022/01/29 02:49:43;;;;;;;8.80;7.18;;;6.20;96.70;;;;;;5030969;28;20045;-77
2022/01/29 02:52:11;;;;;;;12.27;7.63;;;6.00;96.70;;;;;;5005741;28;20050;-77
2022/01/29 02:54:41;;;;;;;9.60;7.65;;;5.90;96.70;;;;;;5009585;28;20295;-77
2022/01/29 02:57:09;;;;;;;11.27;7.55;;;6.00;96.70;;;;;;5008106;28;20030;-77
2022/01/29 02:59:37;;;;;;;11.13;7.18;;;6.10;96.70;;;;;;5027181;28;20052;-77
2022/01/29 03:02:05;;;;;;;9.50;7.43;;;6.00;96.70;;;;;;5024858;28;20040;-77
2022/01/29 03:04:34;;;;;;;13.32;7.40;;;6.00;96.70;;;;;;5024447;28;20107;-77
2022/01/29 03:07:02;;;;;;;10.32;7.40;;;6.10;96.70;;;;;;5021156;28;20103;-77
2022/01/29 03:09:30;;;;;;;11.75;7.38;;;6.10;96.70;;;;;;5026112;28;20046;-77
2022/01/29 03:12:00;;;;;;;11.75;7.43;;;6.10;96.70;;;;;;5027609;28;20041;-77
2022/01/29 03:14:28;;;;;;;7.68;6.20;;;6.10;96.70;;;;;;5028914;28;20045;-77
2022/01/29 03:16:56;;;;;;;10.07;7.20;;;5.90;96.70;;;;;;5021701;28;20562;-77
2022/01/29 03:19:24;;;;;;;11.50;7.00;;;5.70;96.70;;;;;;5025307;28;20033;-77
2022/01/29 03:21:53;;;;;;;10.18;6.80;;;5.70;96.70;;;;;;5025774;28;20171;-77
2022/01/29 03:24:21;;;;;;;8.25;7.25;;;5.70;96.70;;;;;;5021082;28;20041;-77
2022/01/29 03:26:49;;;;;;;9.82;6.82;;;5.70;96.70;;;;;;5027377;28;20128;-77
2022/01/29 03:29:19;;;;;;;10.85;7.15;;;5.70;96.70;;;;;;5028698;28;20059;-77
2022/01/29 03:31:47;;;;;;;10.48;7.10;;;5.80;96.70;;;;;;5024746;28;20049;-77
2022/01/29 03:34:15;;;;;;;7.88;6.45;;;5.70;96.70;;;;;;5025887;28;20045;-77
2022/01/29 03:36:43;;;;;;;8.07;6.32;;;5.70;96.70;;;;;;5008728;28;20057;-76
2022/01/29 03:39:11;;;;;;;9.60;6.47;;;5.80;96.70;;;;;;5026122;28;20034;-77
2022/01/29 03:41:40;;;;;;;10.50;6.78;;;5.80;96.70;;;;;;5025377;28;20157;-77
2022/01/29 03:44:09;;;;;;;9.50;7.47;;;5.90;96.70;;;;;;5034026;28;20044;-77
2022/01/29 03:46:39;;;;;;;10.18;7.57;;;5.80;96.70;;;;;;5021431;28;20045;-77
2022/01/29 03:49:07;;;;;;;10.55;6.30;;;5.80;96.70;;;;;;5022331;28;20053;-77
2022/01/29 03:51:35;;;;;;;8.70;6.70;;;5.80;96.70;;;;;;5025350;28;20141;-77
2022/01/29 03:54:04;;;;;;;11.43;6.55;;;5.90;96.70;;;;;;5025611;28;20135;-77
2022/01/29 03:56:32;;;;;;;8.90;6.57;;;5.90;96.70;;;;;;5027481;28;20046;-78
2022/01/29 03:59:00;;;;;;;8.25;6.25;;;5.90;96.70;;;;;;5025170;28;20044;-77
2022/01/29 04:01:28;;;;;;;7.75;5.90;;;5.80;96.70;;;;;;5028850;28;20048;-77
2022/01/29 04:03:58;;;;;;;8.75;6.22;;;5.70;96.70;;;;;;5026400;28;20052;-77
2022/01/29 04:06:26;;;;;;;9.38;6.95;;;5.70;96.70;;;;;;5020788;28;20406;-77
2022/01/29 04:08:55;;;;;;;6.82;5.10;;;5.70;96.70;;;;;;5019131;28;20128;-77
2022/01/29 04:11:24;;;;;;;8.07;5.53;;;5.70;96.70;;;;;;5023275;28;20048;-77
2022/01/29 04:13:52;;;;;;;6.72;5.38;;;5.60;96.70;;;;;;5024813;28;20049;-77
2022/01/29 04:16:20;;;;;;;6.45;4.88;;;5.50;96.70;;;;;;5023727;28;20045;-77
2022/01/29 04:18:48;;;;;;;6.82;5.13;;;5.50;96.70;;;;;;5021790;28;20160;-77
2022/01/29 04:21:18;;;;;;;7.78;5.15;;;5.50;96.70;;;;;;5030312;28;20479;-76
2022/01/29 04:23:46;;;;;;;6.18;4.72;;;5.40;96.70;;;;;;5029444;28;20108;-77
2022/01/29 04:26:14;;;;;;;4.90;4.30;;;5.40;96.70;;;;;;5030907;28;20033;-76
2022/01/29 04:28:44;;;;;;;5.57;4.03;;;5.40;96.70;;;;;;5026256;28;20132;-76
2022/01/29 04:31:18;;;;;;;5.50;4.22;;;5.30;96.70;;;;;;5029279;28;20484;-76
2022/01/29 04:33:47;;;;;;;6.65;4.38;;;5.30;96.70;;;;;;5024987;28;20045;-76
2022/01/29 04:36:17;;;;;;;7.72;5.15;;;5.30;96.70;;;;;;5035410;28;20044;-76
2022/01/29 04:38:45;;;;;;;6.28;4.75;;;5.30;96.70;;;;;;5045043;28;20044;-76
2022/01/29 04:41:13;;;;;;;6.07;4.60;;;5.10;96.70;;;;;;5029079;28;20570;-77
2022/01/29 04:43:41;;;;;;;8.02;4.55;;;5.10;96.70;;;;;;5028485;28;20072;-76
2022/01/29 04:46:09;;;;;;;6.13;4.25;;;5.20;96.70;;;;;;5031951;28;20136;-77
2022/01/29 04:48:38;;;;;;;6.95;5.00;;;5.30;96.70;;;;;;5049288;28;20456;-76
2022/01/29 04:51:06;;;;;;;8.38;5.40;;;5.40;96.70;;;;;;5027470;28;20465;-76
2022/01/29 04:53:36;;;;;;;7.03;5.53;;;5.30;96.70;;;;;;5027733;28;20109;-75
2022/01/29 04:56:05;;;;;;;9.55;5.38;;;5.40;96.70;;;;;;5042119;28;20418;-76
2022/01/29 04:58:33;;;;;;;6.28;5.15;;;5.20;96.70;;;;;;5052719;28;20045;-76
2022/01/29 05:01:03;;;;;;;8.18;5.43;;;5.30;96.70;;;;;;5026502;28;20065;-75
2022/01/29 05:03:32;;;;;;;5.85;4.57;;;5.20;96.70;;;;;;5032627;28;20514;-75
2022/01/29 05:06:01;;;;;;;7.80;5.40;;;5.20;96.70;;;;;;5044172;28;20129;-75
2022/01/29 05:08:35;;;;;;;8.07;5.43;;;5.10;96.70;;;;;;5030058;28;20069;-75
2022/01/29 05:11:04;;;;;;;6.75;4.97;;;5.00;96.70;;;;;;5026921;28;20091;-75
2022/01/29 05:13:36;;;;;;;7.80;5.57;;;5.00;96.70;;;;;;5031545;28;20044;-75
2022/01/29 05:27:02;;;;;;;6.40;4.30;;;4.90;96.70;;;;;;5041891;28;20182;-76
2022/01/29 05:29:32;;;;;;;6.15;4.00;;;4.90;96.70;;;;;;5027566;28;20099;-75
2022/01/29 05:32:01;;;;;;;7.07;4.97;;;4.90;96.70;;;;;;5051864;28;20555;-75
2022/01/29 05:34:29;;;;;;;8.48;4.68;;;4.90;96.70;;;;;;5014850;28;20429;-75
2022/01/29 05:36:57;;;;;;;5.40;4.50;;;4.80;96.70;;;;;;5024063;28;20055;-75
2022/01/29 05:39:27;;;;;;;9.50;4.47;;;4.80;96.70;;;;;;5029528;28;20049;-76
2022/01/29 05:41:56;;;;;;;6.85;5.22;;;4.80;96.70;;;;;;5030782;28;20144;-74
2022/01/29 05:44:25;;;;;;;6.22;4.80;;;4.70;96.70;;;;;;5020493;28;20037;-76
2022/01/29 05:46:53;;;;;;;7.45;4.68;;;4.70;96.70;;;;;;5023254;28;20045;-75
2022/01/29 05:49:22;;;;;;;5.32;4.15;;;4.80;96.70;;;;;;5026826;28;20598;-76
2022/01/29 05:51:50;;;;;;;6.22;4.30;;;4.70;96.70;;;;;;5025731;28;20045;-75
2022/01/29 05:54:19;;;;;;;5.65;4.28;;;4.70;96.70;;;;;;5005491;28;20050;-75
2022/01/29 05:56:49;;;;;;;8.38;4.97;;;4.60;96.70;;;;;;5026798;28;20493;-75
2022/01/29 05:59:17;;;;;;;9.45;5.18;;;4.60;96.70;;;;;;5023864;28;20045;-75
2022/01/29 06:01:46;;;;;;;9.98;6.13;;;4.60;96.70;;;;;;5013431;28;20048;-75
2022/01/29 06:04:14;;;;;;;9.63;5.00;;;4.70;96.70;;;;;;5023176;28;20033;-75
2022/01/29 06:06:43;;;;;;;9.65;6.03;;;4.70;96.70;;;;;;5021519;28;20053;-76
2022/01/29 06:09:11;;;;;;;7.18;5.35;;;4.80;96.70;;;;;;5011927;28;20045;-75
2022/01/29 06:11:39;;;;;;;7.05;4.90;;;4.70;96.70;;;;;;5028255;28;20509;-75
2022/01/29 06:14:09;;;;;;;9.85;5.43;;;4.80;96.70;;;;;;5022503;28;20049;-75
2022/01/29 06:16:37;;;;;;;8.77;5.63;;;4.80;96.70;;;;;;5024611;28;20041;-76
2022/01/29 06:19:06;;;;;;;11.27;5.82;;;4.70;96.70;;;;;;5020835;28;20041;-75
2022/01/29 06:21:34;;;;;;;6.57;5.22;;;4.70;96.70;;;;;;5024937;28;20045;-75
2022/01/29 06:24:02;;;;;;;7.55;5.22;;;4.70;96.70;;;;;;5032428;28;20048;-75
2022/01/29 06:26:31;;;;;;;6.82;5.00;;;4.50;96.70;;;;;;5021491;28;20516;-75
2022/01/29 06:28:59;;;;;;;7.35;5.05;;;4.60;96.70;;;;;;5024102;28;20155;-75
2022/01/29 06:31:29;;;;;;;7.03;5.13;;;4.60;96.70;;;;;;5026457;28;20052;-75
2022/01/29 06:33:57;;;;;;;7.80;4.75;;;4.50;96.70;;;;;;5023561;28;20053;-75
2022/01/29 06:36:25;;;;;;;7.45;4.53;;;4.40;96.70;;;;;;5024401;28;20049;-75
2022/01/29 06:38:53;;;;;;;7.65;5.00;;;4.30;96.70;;;;;;5022486;28;20179;-75
2022/01/29 06:41:22;;;;;;;6.88;4.78;;;4.40;96.70;;;;;;5030412;28;20356;-75
2022/01/29 06:43:50;;;;;;;5.57;4.43;;;4.40;96.70;;;;;;5012250;28;20080;-75
2022/01/29 06:46:18;;;;;;;7.22;5.07;;;4.40;96.70;;;;;;5025793;28;20491;-75
2022/01/29 06:48:48;;;;;;;7.13;5.18;;;4.40;96.70;;;;;;5043513;28;20064;-75
2022/01/29 06:51:17;;;;;;;7.97;5.07;;;4.40;96.70;;;;;;5027349;28;20033;-75
2022/01/29 06:53:45;;;;;;;8.60;5.70;;;4.40;96.70;;;;;;5026989;28;20044;-74
2022/01/29 06:56:13;;;;;;;8.82;5.85;;;4.50;96.70;;;;;;5038425;28;20054;-78
2022/01/29 06:58:41;;;;;;;7.03;5.15;;;4.50;96.70;;;;;;5042326;28;20083;-74
2022/01/29 07:01:29;;;;;;;8.98;5.80;;;4.50;96.70;;;;;;5025053;28;20059;-75
2022/01/29 07:03:59;;;;;;;8.05;5.45;;;4.40;96.70;;;;;;5023517;28;20450;-75
2022/01/29 07:06:28;;;;;;;7.55;5.32;;;4.40;96.70;;;;;;5045137;28;20127;-75
2022/01/29 07:08:57;;;;;;;7.28;5.00;;;4.40;96.70;;;;;;5051981;28;20040;-76
2022/01/29 07:11:26;;;;;;;5.97;4.82;;;4.60;96.70;;;;;;5022241;28;20059;-76
2022/01/29 07:14:02;;;;;;;9.98;5.65;;;4.60;96.70;;;;;;5029931;28;20388;-78
2022/01/29 07:16:32;;;;;;;7.97;5.35;;;4.60;96.70;;;;;;5023705;28;20135;-76
2022/01/29 07:19:03;;;;;;;9.52;5.47;;;4.70;96.70;;;;;;5024382;28;20044;-75
2022/01/29 07:21:31;;;;;;;10.07;5.10;;;4.60;96.70;;;;;;5018486;28;20052;-76
2022/01/29 07:24:00;;;;;;;7.72;5.05;;;4.60;96.70;;;;;;5025208;28;20051;-77
2022/01/29 07:26:28;;;;;;;6.93;4.90;;;4.60;96.70;;;;;;5042854;28;20036;-76
2022/01/29 07:28:57;;;;;;;7.05;5.43;;;4.60;96.70;;;;;;5026560;28;20052;-76
2022/01/29 07:31:25;;;;;;;7.03;5.32;;;4.60;96.70;;;;;;5037081;28;20494;-76
2022/01/29 07:33:54;;;;;;;7.70;5.75;;;4.50;96.70;;;;;;5021296;28;20321;-76
2022/01/29 07:36:23;;;;;;;8.65;5.82;;;4.50;96.70;;;;;;5035258;28;20124;-76
2022/01/29 07:38:51;;;;;;;10.35;6.53;;;4.50;96.70;;;;;;5034600;28;20056;-76
2022/01/29 07:41:20;;;;;;;9.50;6.70;;;4.40;96.70;;;;;;5023097;28;20052;-76
2022/01/29 07:43:48;;;;;;;9.60;6.80;;;4.40;96.70;;;;;;5044389;28;20106;-78
2022/01/29 07:46:16;;;;;;;44.63;28.25;;;4.50;96.70;;;;;;5025290;28;20045;-77
2022/01/29 07:48:49;;;;;;;18.90;11.95;;;4.60;96.70;;;;;;5030254;28;20036;-77
2022/01/29 07:51:17;;;;;;;12.57;8.60;;;4.60;96.70;;;;;;5046575;28;20356;-76
2022/01/29 07:53:47;;;;;;;11.88;7.53;;;4.60;96.70;;;;;;5024021;28;20112;-78
2022/01/29 07:56:15;;;;;;;12.75;8.05;;;4.70;96.70;;;;;;5030195;28;20564;-78
2022/01/29 07:58:44;;;;;;;13.75;7.60;;;4.70;96.70;;;;;;5030309;28;20045;-77
2022/01/29 08:01:14;;;;;;;13.30;8.00;;;4.70;96.70;;;;;;5031297;28;20490;-77
2022/01/29 08:03:52;;;;;;;12.82;8.82;;;4.80;96.70;;;;;;5026412;28;20508;-77
2022/01/29 08:06:22;;;;;;;10.60;8.05;;;4.80;96.70;;;;;;5027736;28;20106;-79
2022/01/29 08:08:52;;;;;;;10.95;7.35;;;4.90;96.70;;;;;;5042510;28;20040;-78
2022/01/29 08:11:21;;;;;;;13.00;8.40;;;5.00;96.70;;;;;;5011121;28;20126;-78
2022/01/29 08:13:50;;;;;;;14.77;9.10;;;5.00;96.70;;;;;;5027777;28;20059;-79
2022/01/29 08:16:18;;;;;;;12.40;8.32;;;5.10;96.70;;;;;;5033223;28;20044;-78
2022/01/29 08:18:47;;;;;;;14.90;8.20;;;5.20;96.70;;;;;;5043559;28;20029;-79
2022/01/29 08:21:18;;;;;;;11.27;7.65;;;5.30;96.70;;;;;;5050586;28;20542;-79
2022/01/29 08:23:46;;;;;;;13.75;8.15;;;5.20;96.70;;;;;;5029800;28;20153;-79
2022/01/29 08:26:18;;;;;;;9.70;6.82;;;5.20;96.70;;;;;;5043281;28;20037;-79
2022/01/29 08:28:46;;;;;;;13.20;7.45;;;5.30;96.70;;;;;;5047423;28;20127;-79
2022/01/29 08:31:14;;;;;;;10.93;7.03;;;5.30;96.70;;;;;;5029225;28;20120;-79
2022/01/29 08:33:43;;;;;;;10.23;7.10;;;5.30;96.70;;;;;;5041828;28;20048;-78
2022/01/29 08:36:11;;;;;;;9.52;7.28;;;5.20;96.70;;;;;;5045881;28;20110;-78
2022/01/29 08:38:40;;;;;;;11.48;7.63;;;5.40;96.70;;;;;;5019401;28;20071;-78
2022/01/29 08:41:14;;;;;;;13.20;8.02;;;5.40;96.70;;;;;;5042444;28;20506;-78
2022/01/29 08:43:46;;;;;;;12.02;8.18;;;5.40;96.70;;;;;;5041501;28;20071;-77
2022/01/29 08:46:15;;;;;;;12.68;7.95;;;5.50;96.70;;;;;;5036463;28;20399;-78
2022/01/29 08:48:43;;;;;;;13.75;8.90;;;5.50;96.70;;;;;;5028093;28;20048;-80
2022/01/29 08:51:11;;;;;;;14.82;8.45;;;5.60;96.70;;;;;;5032372;28;20814;-78
2022/01/29 08:53:41;;;;;;;24.85;15.27;;;5.70;96.70;;;;;;5045756;28;20041;-77
2022/01/29 08:56:09;;;;;;;23.45;14.15;;;5.80;96.70;;;;;;5046204;28;20044;-78
2022/01/29 08:58:45;;;;;;;14.98;8.90;;;5.80;96.70;;;;;;5045641;28;20644;-77
2022/01/29 09:01:14;;;;;;;16.48;10.07;;;6.00;96.70;;;;;;5029318;28;20048;-78
2022/01/29 09:03:43;;;;;;;11.65;8.40;;;6.20;96.70;;;;;;5025282;28;20044;-78
2022/01/29 09:06:12;;;;;;;11.30;7.93;;;6.40;96.70;;;;;;5048843;28;20122;-77
2022/01/29 09:08:40;;;;;;;10.95;7.10;;;6.50;96.70;;;;;;5030970;28;20072;-77
2022/01/29 09:11:09;;;;;;;8.55;6.55;;;6.60;96.70;;;;;;5042045;28;20045;-77
2022/01/29 09:13:37;;;;;;;10.55;6.97;;;6.80;96.70;;;;;;5011725;28;20090;-77
2022/01/29 09:16:08;;;;;;;8.88;6.75;;;6.90;96.70;;;;;;5042325;28;20044;-77
2022/01/29 09:18:38;;;;;;;9.45;6.35;;;6.90;96.70;;;;;;5025382;28;20041;-78
2022/01/29 09:21:09;;;;;;;8.85;6.60;;;7.00;96.70;;;;;;5044637;28;20507;-77
2022/01/29 09:23:37;;;;;;;10.50;7.65;;;7.10;96.70;;;;;;5029251;28;20571;-77
2022/01/29 09:26:06;;;;;;;9.88;7.15;;;7.20;96.70;;;;;;5027145;28;20102;-76
2022/01/29 09:28:34;;;;;;;12.65;7.53;;;7.30;96.70;;;;;;5049305;28;20586;-77
2022/01/29 09:31:03;;;;;;;11.68;7.28;;;7.50;96.70;;;;;;5029562;28;20675;-76
2022/01/29 09:33:38;;;;;;;13.77;8.70;;;7.50;96.70;;;;;;5027097;28;20048;-77
2022/01/29 09:36:07;;;;;;;12.43;8.23;;;7.70;96.70;;;;;;5026093;28;20045;-77
2022/01/29 09:38:39;;;;;;;12.02;8.35;;;7.80;96.70;;;;;;5043400;28;20065;-77
2022/01/29 09:41:11;;;;;;;11.73;8.43;;;7.90;96.70;;;;;;5028961;28;20045;-77
2022/01/29 09:43:42;;;;;;;10.38;6.90;;;7.90;96.70;;;;;;5042309;28;20048;-76
2022/01/29 09:46:10;;;;;;;11.30;7.22;;;8.00;96.70;;;;;;5024172;28;20072;-77
2022/01/29 09:48:41;;;;;;;10.10;6.95;;;8.10;96.70;;;;;;5032474;28;20387;-78
2022/01/29 09:51:12;;;;;;;10.43;7.50;;;8.10;96.70;;;;;;5046467;28;20041;-78
2022/01/29 09:53:43;;;;;;;10.95;7.10;;;8.20;96.70;;;;;;5033082;28;20417;-77
2022/01/29 09:56:11;;;;;;;9.88;6.72;;;8.30;96.70;;;;;;5031226;28;20064;-78
2022/01/29 09:58:40;;;;;;;9.85;6.90;;;8.40;96.70;;;;;;5042895;28;20033;-78
2022/01/29 10:01:09;;;;;;;11.07;7.90;;;8.50;96.70;;;;;;5023995;28;20127;-78
2022/01/29 10:03:39;;;;;;;10.25;7.70;;;8.60;96.70;;;;;;5028883;28;20139;-78
2022/01/29 10:06:16;;;;;;;11.15;7.80;;;8.50;96.70;;;;;;5027141;28;20146;-77
2022/01/29 10:08:44;;;;;;;12.77;7.68;;;8.60;96.70;;;;;;5029436;28;20445;-76
2022/01/29 10:11:20;;;;;;;12.25;8.18;;;8.80;96.70;;;;;;5043594;28;20044;-77
2022/01/29 10:13:49;;;;;;;11.68;7.90;;;8.90;96.70;;;;;;5027230;28;20037;-77
2022/01/29 10:16:19;;;;;;;11.68;7.95;;;9.00;96.70;;;;;;5013844;28;20310;-78
2022/01/29 10:19:00;;;;;;;11.60;8.32;;;9.10;96.70;;;;;;5023798;28;20169;-74
2022/01/29 10:21:30;;;;;;;12.10;8.25;;;9.20;96.70;;;;;;5025905;28;20060;-75
2022/01/29 10:24:05;;;;;;;11.10;7.40;;;9.10;96.70;;;;;;5024451;28;20052;-76
2022/01/29 10:26:34;;;;;;;13.43;8.48;;;9.20;96.70;;;;;;5029990;28;20055;-80
2022/01/29 10:29:08;;;;;;;11.73;7.43;;;9.40;96.70;;;;;;5042315;28;20044;-75
2022/01/29 10:31:42;;;;;;;11.98;8.07;;;9.50;96.70;;;;;;5028070;28;20048;-80
2022/01/29 10:34:24;;;;;;;13.00;8.30;;;9.60;96.70;;;;;;5023375;28;20048;-80
2022/01/29 10:37:15;;;;;;;11.57;7.68;;;9.70;96.70;;;;;;5033718;28;20059;-79
2022/01/29 10:39:47;;;;;;;11.35;7.68;;;9.70;96.70;;;;;;5028845;28;20040;-79
2022/01/29 10:42:17;;;;;;;9.85;7.38;;;9.70;96.70;;;;;;5032521;28;20574;-76
2022/01/29 10:44:47;;;;;;;10.57;8.25;;;9.80;96.70;;;;;;5033322;28;20659;-77
2022/01/29 10:47:15;;;;;;;10.60;7.95;;;9.90;96.70;;;;;;5044828;28;20738;-78
2022/01/29 10:49:53;;;;;;;12.38;7.95;;;10.00;96.70;;;;;;5040309;28;20609;-77
2022/01/29 10:52:28;;;;;;;9.95;7.38;;;10.00;96.70;;;;;;5025333;28;20053;-77
2022/01/29 10:55:01;;;;;;;10.40;7.30;;;10.20;96.70;;;;;;5031183;28;20490;-78
2022/01/29 10:57:35;;;;;;;11.32;6.75;;;10.20;96.70;;;;;;5029270;28;20106;-78
2022/01/29 11:00:06;;;;;;;11.10;7.05;;;10.30;96.70;;;;;;5021130;28;20049;-77
2022/01/29 11:02:35;;;;;;;11.45;7.65;;;10.40;96.70;;;;;;5023646;28;20078;-77
2022/01/29 11:05:07;;;;;;;9.70;6.85;;;10.50;96.70;;;;;;5028879;28;20532;-78
2022/01/29 11:07:36;;;;;;;10.73;8.00;;;10.70;96.70;;;;;;5027873;28;20049;-83
2022/01/29 11:10:06;;;;;;;8.60;6.38;;;10.80;96.70;;;;;;5013124;28;20064;-82
2022/01/29 11:12:44;;;;;;;10.60;6.80;;;10.90;96.70;;;;;;5023620;28;20143;-83
2022/01/29 11:15:15;;;;;;;8.95;6.60;;;11.00;96.70;;;;;;5029066;28;20502;-82
2022/01/29 11:17:45;;;;;;;10.05;6.75;;;11.00;96.70;;;;;;5043158;28;20033;-77
2022/01/29 11:20:15;;;;;;;9.75;6.50;;;11.10;96.70;;;;;;5010530;28;20463;-77
2022/01/29 11:22:47;;;;;;;8.50;6.38;;;11.10;96.70;;;;;;5043876;28;20043;-82
2022/01/29 11:25:20;;;;;;;9.50;6.38;;;11.20;96.70;;;;;;5025047;28;20073;-80
2022/01/29 11:28:15;;;;;;;22.85;14.93;;;11.30;96.70;;;;;;5026080;28;20592;-82
2022/01/29 11:30:44;;;;;;;10.82;7.28;;;11.40;96.70;;;;;;5027603;28;20395;-80
2022/01/29 11:33:13;;;;;;;9.18;5.90;;;11.60;96.70;;;;;;5045099;28;20458;-81
2022/01/29 11:35:53;;;;;;;8.15;6.28;;;11.60;96.70;;;;;;5024565;28;20044;-80
2022/01/29 11:38:28;;;;;;;7.72;5.38;;;11.60;96.70;;;;;;5022865;28;20391;-80
2022/01/29 11:41:01;;;;;;;8.75;5.03;;;11.70;96.70;;;;;;5020339;28;20135;-80
2022/01/29 11:43:31;;;;;;;8.65;5.15;;;11.80;96.70;;;;;;5024146;28;20091;-79
2022/01/29 11:46:15;;;;;;;6.50;4.78;;;11.90;96.70;;;;;;5023584;28;20387;-80
2022/01/29 11:48:51;;;;;;;6.72;4.85;;;12.00;96.70;;;;;;5002665;28;20049;-80
2022/01/29 11:51:54;;;;;;;7.15;4.57;;;12.10;96.70;;;;;;5012784;28;20160;-80
2022/01/29 11:54:25;;;;;;;8.07;5.07;;;12.20;96.70;;;;;;5019793;28;20057;-82
2022/01/29 11:57:10;;;;;;;6.30;4.25;;;12.30;96.70;;;;;;5020286;28;20132;-82
2022/01/29 11:59:39;;;;;;;6.60;4.40;;;12.40;96.70;;;;;;5023535;28;20045;-82
2022/01/29 12:02:36;;;;;;;5.75;4.20;;;12.50;96.70;;;;;;5004900;28;20049;-82
2022/01/29 12:05:29;;;;;;;6.13;4.28;;;12.70;96.70;;;;;;5007991;28;20450;-81
2022/01/29 12:08:15;;;;;;;6.50;4.70;;;12.80;96.70;;;;;;5017499;28;20048;-78
2022/01/29 12:10:53;;;;;;;8.70;5.60;;;12.80;96.70;;;;;;5018861;28;20061;-77
2022/01/29 12:13:22;;;;;;;7.60;5.45;;;12.90;96.70;;;;;;5016970;28;20052;-77
2022/01/29 12:15:56;;;;;;;7.80;6.00;;;13.00;96.70;;;;;;5018921;28;20042;-77
2022/01/29 12:18:28;;;;;;;6.70;5.55;;;13.00;96.70;;;;;;5025930;28;20180;-78
2022/01/29 12:20:56;;;;;;;10.15;7.03;;;13.10;96.70;;;;;;5019021;28;20507;-75
2022/01/29 12:23:26;;;;;;;9.07;6.07;;;13.20;96.70;;;;;;5021110;28;20033;-76
2022/01/29 12:25:56;;;;;;;9.10;6.22;;;13.20;96.70;;;;;;5006227;28;20045;-77
2022/01/29 12:28:25;;;;;;;10.30;6.80;;;13.30;96.70;;;;;;5022026;28;20046;-76
2022/01/29 12:30:58;;;;;;;10.55;6.90;;;13.30;96.70;;;;;;5021219;28;20100;-77
2022/01/29 12:33:32;;;;;;;9.15;5.88;;;13.40;96.70;;;;;;5017733;28;20053;-76
2022/01/29 12:36:05;;;;;;;8.15;5.72;;;13.40;96.70;;;;;;5019351;28;20037;-76
2022/01/29 12:38:40;;;;;;;9.13;6.68;;;13.50;96.70;;;;;;5019456;28;20408;-76
2022/01/29 12:41:11;;;;;;;9.65;6.43;;;13.50;96.30;;;;;;5021784;28;20809;-76
2022/01/29 12:43:52;;;;;;;8.63;6.43;;;13.60;96.40;;;;;;5023017;28;20165;-76
2022/01/29 12:46:23;;;;;;;9.07;6.10;;;13.70;96.70;;;;;;5024422;28;20048;-77
2022/01/29 12:49:02;;;;;;;9.27;6.30;;;13.90;96.70;;;;;;5022862;28;20045;-81
2022/01/29 12:51:31;;;;;;;7.20;5.25;;;14.00;96.70;;;;;;5014573;28;20045;-77
2022/01/29 12:54:02;;;;;;;7.65;6.03;;;14.10;96.10;;;;;;5030175;28;20041;-77
2022/01/29 12:56:31;;;;;;;8.63;5.60;;;14.10;95.20;;;;;;5021899;28;20045;-77
2022/01/29 12:59:00;;;;;;;7.63;5.15;;;14.10;93.40;;;;;;5005736;28;20041;-76
2022/01/29 13:01:28;;;;;;;9.75;7.95;;;14.20;93.80;;;;;;5011822;28;20044;-76
2022/01/29 13:04:01;;;;;;;10.68;7.80;;;14.20;93.90;;;;;;5005334;28;20046;-76
2022/01/29 13:06:30;;;;;;;9.07;6.72;;;14.30;94.10;;;;;;5023389;28;20653;-75
2022/01/29 13:09:14;;;;;;;8.68;6.35;;;14.40;94.20;;;;;;5023857;28;20040;-76
2022/01/29 13:11:43;;;;;;;14.80;7.55;;;14.30;93.60;;;;;;5019879;28;20041;-76
2022/01/29 13:14:13;;;;;;;8.55;6.65;;;14.40;94.10;;;;;;5028240;28;20494;-76